Time;durP1;ratioP1;P1;durP2;ratioP2;P2;SDS_P1;SDS_P2;PMS_P1;PMS_P2;Temp;Humidity;BMP_temperature;BMP_pressure;BME280_temperature;BME280_humidity;BME280_pressure;Samples;Min_cycle;Max_cycle;Signal;HPM_P1;HPM_P2
2023/01/22 00:00:20;;;;;;;8.43;7.53;;;;;;;-0.39;100.00;99532.28;4136373;28;20229;-45
2023/01/22 00:02:22;;;;;;;7.17;6.43;;;;;;;-0.51;100.00;99530.81;4125260;28;20233;-45
2023/01/22 00:04:24;;;;;;;7.83;6.80;;;;;;;-0.52;100.00;99535.38;4120039;28;21180;-46
2023/01/22 00:06:26;;;;;;;8.20;7.40;;;;;;;-0.53;100.00;99533.69;4138060;28;20869;-46
2023/01/22 00:08:28;;;;;;;7.23;6.63;;;;;;;-0.50;100.00;99532.50;4138792;28;20233;-46
2023/01/22 00:10:31;;;;;;;8.57;7.23;;;;;;;-0.57;100.00;99531.44;4122855;28;20244;-46
2023/01/22 00:12:34;;;;;;;7.93;7.13;;;;;;;-0.54;100.00;99531.16;4136132;28;20309;-45
2023/01/22 00:14:36;;;;;;;8.87;8.07;;;;;;;-0.52;100.00;99523.75;4134309;28;20651;-46
2023/01/22 00:16:40;;;;;;;8.07;7.03;;;;;;;-0.45;100.00;99527.50;4141282;28;20686;-46
2023/01/22 00:18:42;;;;;;;9.33;8.07;;;;;;;-0.47;100.00;99522.28;4138121;28;20241;-46
2023/01/22 00:20:48;;;;;;;7.37;6.63;;;;;;;-0.46;100.00;99523.16;4123805;28;20205;-46
2023/01/22 00:22:49;;;;;;;8.63;7.77;;;;;;;-0.45;100.00;99516.75;4138487;28;20238;-45
2023/01/22 00:24:51;;;;;;;7.07;6.43;;;;;;;-0.47;100.00;99521.47;4141308;28;20245;-46
2023/01/22 00:26:53;;;;;;;9.40;8.47;;;;;;;-0.44;100.00;99521.13;4137511;28;20241;-45
2023/01/22 00:28:54;;;;;;;8.70;7.87;;;;;;;-0.46;100.00;99523.16;4140182;28;20754;-45
2023/01/22 00:31:00;;;;;;;7.53;6.73;;;;;;;-0.43;100.00;99520.13;4136384;28;20284;-45
2023/01/22 00:33:03;;;;;;;12.50;7.13;;;;;;;-0.44;100.00;99522.00;4138075;28;20236;-45
2023/01/22 00:35:05;;;;;;;9.80;8.90;;;;;;;-0.48;100.00;99517.09;4151934;28;20209;-47
2023/01/22 00:37:07;;;;;;;9.40;8.70;;;;;;;-0.48;100.00;99522.47;4140729;28;20229;-46
2023/01/22 00:39:09;;;;;;;8.03;7.33;;;;;;;-0.49;100.00;99518.09;4151419;28;20722;-47
2023/01/22 00:41:11;;;;;;;9.53;7.30;;;;;;;-0.47;100.00;99510.72;4135951;28;20237;-48
2023/01/22 00:43:13;;;;;;;7.87;6.50;;;;;;;-0.47;100.00;99516.09;4136886;28;20794;-46
2023/01/22 00:45:15;;;;;;;6.10;5.30;;;;;;;-0.39;100.00;99502.69;4153164;28;20735;-45
2023/01/22 00:47:16;;;;;;;7.17;6.47;;;;;;;-0.46;100.00;99515.09;4138915;28;20272;-48
2023/01/22 00:49:18;;;;;;;12.07;7.43;;;;;;;-0.48;100.00;99509.84;4139405;28;20206;-46
2023/01/22 00:51:20;;;;;;;10.13;9.10;;;;;;;-0.43;100.00;99501.31;4137142;28;20233;-46
2023/01/22 00:53:22;;;;;;;7.97;7.27;;;;;;;-0.43;100.00;99504.00;4134880;28;20233;-45
2023/01/22 00:55:24;;;;;;;6.70;6.10;;;;;;;-0.43;100.00;99512.91;4137797;28;20275;-46
2023/01/22 00:57:25;;;;;;;8.23;7.45;;;;;;;-0.31;100.00;99502.75;4132656;28;20957;-46
2023/01/22 00:59:27;;;;;;;8.77;6.70;;;;;;;-0.30;100.00;99502.59;4135412;28;20549;-46
2023/01/22 01:01:29;;;;;;;8.73;7.97;;;;;;;-0.32;100.00;99506.44;4134431;28;20224;-45
2023/01/22 01:03:31;;;;;;;9.90;8.73;;;;;;;-0.23;100.00;99500.09;4130371;28;20329;-46
2023/01/22 01:05:32;;;;;;;8.50;6.83;;;;;;;-0.29;100.00;99503.47;4136574;28;20217;-45
2023/01/22 01:07:34;;;;;;;10.67;8.00;;;;;;;-0.36;100.00;99497.03;4134451;28;20683;-46
2023/01/22 01:09:36;;;;;;;7.83;7.00;;;;;;;-0.44;100.00;99494.25;4134490;28;20217;-46
2023/01/22 01:11:38;;;;;;;12.60;9.60;;;;;;;-0.46;100.00;99498.94;4135619;28;20276;-47
2023/01/22 01:13:41;;;;;;;8.57;7.17;;;;;;;-0.43;100.00;99499.47;4147178;28;20364;-46
2023/01/22 01:15:43;;;;;;;8.53;7.73;;;;;;;-0.44;100.00;99500.50;4138268;28;20301;-46
2023/01/22 01:17:45;;;;;;;8.70;7.80;;;;;;;-0.44;100.00;99499.63;4135521;28;20272;-46
2023/01/22 01:19:47;;;;;;;8.43;7.60;;;;;;;-0.33;100.00;99496.69;4135102;28;20626;-46
2023/01/22 01:21:49;;;;;;;8.10;7.30;;;;;;;-0.39;100.00;99494.63;4133892;28;20245;-45
2023/01/22 01:23:50;;;;;;;8.23;7.45;;;;;;;-0.41;100.00;99497.47;4138839;28;20223;-46
2023/01/22 01:25:53;;;;;;;8.23;7.23;;;;;;;-0.41;100.00;99488.59;4134497;28;20283;-45
2023/01/22 01:27:54;;;;;;;8.18;6.38;;;;;;;-0.39;100.00;99497.31;4138212;28;20209;-46
2023/01/22 01:29:57;;;;;;;8.07;6.63;;;;;;;-0.40;100.00;99501.84;4134769;28;20241;-45
2023/01/22 01:31:59;;;;;;;7.93;7.30;;;;;;;-0.38;100.00;99493.63;4136364;28;20261;-45
2023/01/22 01:34:01;;;;;;;8.03;7.23;;;;;;;-0.36;100.00;99494.34;4137095;28;20209;-45
2023/01/22 01:36:05;;;;;;;5.70;5.20;;;;;;;-0.30;100.00;99491.00;4137236;28;20240;-46
2023/01/22 01:38:07;;;;;;;10.18;8.18;;;;;;;-0.32;100.00;99487.63;4131599;28;20260;-46
2023/01/22 01:40:10;;;;;;;9.90;7.50;;;;;;;-0.31;100.00;99486.63;4136611;28;20587;-46
2023/01/22 01:42:11;;;;;;;7.70;6.97;;;;;;;-0.30;100.00;99485.63;4150679;28;20232;-47
2023/01/22 01:44:19;;;;;;;8.27;7.47;;;;;;;-0.27;100.00;99493.38;4136080;28;21082;-46
2023/01/22 01:46:23;;;;;;;7.47;6.83;;;;;;;-0.34;100.00;99495.00;4133459;28;20216;-45
2023/01/22 01:48:37;;;;;;;7.23;6.23;;;;;;;-0.15;100.00;99489.44;4145890;28;20686;-46
2023/01/22 01:50:40;;;;;;;7.37;6.67;;;;;;;-0.32;100.00;99477.72;4136799;28;20240;-46
2023/01/22 01:52:42;;;;;;;6.63;6.00;;;;;;;-0.31;100.00;99484.78;4138875;28;20271;-46
2023/01/22 01:54:46;;;;;;;7.77;7.07;;;;;;;-0.36;100.00;99475.53;4139822;28;20217;-45
2023/01/22 01:56:50;;;;;;;7.33;6.60;;;;;;;-0.32;100.00;99476.88;4134620;28;20841;-46
2023/01/22 01:58:56;;;;;;;10.00;8.25;;;;;;;-0.19;100.00;99483.53;4119220;28;20367;-46
2023/01/22 02:01:01;;;;;;;8.10;7.30;;;;;;;-0.19;100.00;99478.16;4133671;28;20564;-46
2023/01/22 02:03:03;;;;;;;7.57;6.57;;;;;;;-0.27;100.00;99482.63;4134743;28;20231;-46
2023/01/22 02:05:05;;;;;;;7.87;7.07;;;;;;;-0.34;100.00;99481.56;4131600;28;20298;-45
2023/01/22 02:07:07;;;;;;;6.20;5.70;;;;;;;-0.33;100.00;99481.41;4134750;28;20264;-46
2023/01/22 02:09:09;;;;;;;8.07;7.37;;;;;;;-0.32;100.00;99487.63;4134309;28;20202;-45
2023/01/22 02:11:11;;;;;;;8.67;6.60;;;;;;;-0.42;100.00;99486.91;4133932;28;20265;-46
2023/01/22 02:13:18;;;;;;;7.90;7.20;;;;;;;-0.43;100.00;99487.88;4139230;28;20264;-46
2023/01/22 02:15:20;;;;;;;7.87;7.17;;;;;;;-0.28;100.00;99486.31;4133290;28;20206;-46
2023/01/22 02:17:22;;;;;;;9.03;7.50;;;;;;;-0.29;100.00;99490.03;4148888;28;20244;-45
2023/01/22 02:19:23;;;;;;;7.63;6.93;;;;;;;-0.24;100.00;99484.97;4135448;28;21336;-46
2023/01/22 02:21:38;;;;;;;7.37;6.53;;;;;;;-0.20;100.00;99481.00;4120161;28;20784;-45
2023/01/22 02:23:40;;;;;;;7.57;6.80;;;;;;;-0.25;100.00;99483.31;4136193;28;20257;-46
2023/01/22 02:25:41;;;;;;;8.10;7.33;;;;;;;-0.23;100.00;99486.66;4135564;28;20217;-46
2023/01/22 02:27:43;;;;;;;7.67;6.67;;;;;;;-0.27;100.00;99485.31;4134431;28;20214;-46
2023/01/22 02:29:45;;;;;;;7.37;6.67;;;;;;;-0.30;100.00;99474.84;4135241;28;20237;-46
2023/01/22 02:31:47;;;;;;;7.93;5.87;;;;;;;-0.24;100.00;99476.91;4132888;28;20317;-45
2023/01/22 02:33:49;;;;;;;8.57;7.87;;;;;;;-0.28;100.00;99480.94;4136169;28;20206;-46
2023/01/22 02:35:50;;;;;;;7.47;6.73;;;;;;;-0.17;100.00;99475.28;4148042;28;20197;-45
2023/01/22 02:37:52;;;;;;;7.17;6.47;;;;;;;-0.21;100.00;99479.31;4138419;28;20197;-47
2023/01/22 02:39:54;;;;;;;8.67;7.63;;;;;;;-0.34;100.00;99470.81;4140055;28;20694;-46
2023/01/22 02:41:56;;;;;;;8.33;7.53;;;;;;;-0.30;100.00;99469.47;4137399;28;20236;-46
2023/01/22 02:43:57;;;;;;;8.60;7.47;;;;;;;-0.29;100.00;99471.19;4138318;28;20760;-46
2023/01/22 02:45:59;;;;;;;7.53;6.83;;;;;;;-0.26;100.00;99476.25;4138361;28;20233;-46
2023/01/22 02:48:01;;;;;;;8.17;7.40;;;;;;;-0.22;100.00;99473.06;4137602;28;20221;-47
2023/01/22 02:50:04;;;;;;;8.70;7.87;;;;;;;-0.24;100.00;99468.84;4138491;28;20197;-46
2023/01/22 02:52:06;;;;;;;7.77;7.03;;;;;;;-0.32;100.00;99468.81;4140702;28;20241;-46
2023/01/22 02:54:07;;;;;;;8.20;6.53;;;;;;;-0.29;100.00;99476.56;4139840;28;20307;-46
2023/01/22 02:56:12;;;;;;;8.37;7.67;;;;;;;-0.21;100.00;99468.56;4133604;28;20209;-46
2023/01/22 02:58:16;;;;;;;10.10;6.67;;;;;;;-0.30;100.00;99464.97;4137933;28;20679;-46
2023/01/22 03:00:18;;;;;;;7.73;7.07;;;;;;;-0.25;100.00;99472.53;4137849;28;20206;-45
2023/01/22 03:02:20;;;;;;;8.93;8.03;;;;;;;-0.30;100.00;99466.78;4137031;28;20810;-46
2023/01/22 03:04:22;;;;;;;7.43;6.73;;;;;;;-0.27;100.00;99466.50;4141148;28;20241;-46
2023/01/22 03:06:26;;;;;;;7.10;6.40;;;;;;;-0.22;100.00;99459.63;4139652;28;20249;-46
2023/01/22 03:08:28;;;;;;;7.80;7.00;;;;;;;-0.12;100.00;99463.88;4136613;28;20209;-46
2023/01/22 03:10:29;;;;;;;8.90;7.30;;;;;;;-0.21;100.00;99461.31;4140351;28;20209;-46
2023/01/22 03:21:52;;;;;;;9.37;8.47;;;;;;;-0.20;100.00;99460.31;4136440;28;20260;-45
2023/01/22 03:23:54;;;;;;;11.33;9.27;;;;;;;-0.22;100.00;99456.13;4140995;28;20206;-46
2023/01/22 03:25:56;;;;;;;11.47;10.27;;;;;;;-0.24;100.00;99455.41;4151619;28;20680;-45
2023/01/22 03:28:17;;;;;;;10.43;9.53;;;;;;;-0.22;100.00;99453.44;4138884;28;20696;-45
2023/01/22 03:30:19;;;;;;;7.87;7.07;;;;;;;-0.13;100.00;99449.75;4151658;28;20256;-46
2023/01/22 03:32:21;;;;;;;7.07;6.37;;;;;;;-0.12;100.00;99442.38;4136873;28;20976;-46
2023/01/22 03:34:24;;;;;;;8.43;7.33;;;;;;;-0.15;100.00;99446.41;4136983;28;20222;-46
2023/01/22 03:36:26;;;;;;;8.40;7.37;;;;;;;-0.19;100.00;99453.09;4143312;28;20240;-46
2023/01/22 03:38:28;;;;;;;8.43;7.37;;;;;;;-0.13;100.00;99449.75;4138689;28;20279;-46
2023/01/22 03:40:30;;;;;;;8.33;7.53;;;;;;;-0.12;100.00;99458.50;4135651;28;20344;-46
2023/01/22 03:42:31;;;;;;;7.90;7.13;;;;;;;-0.16;100.00;99460.84;4121191;28;20227;-45
2023/01/22 03:44:33;;;;;;;8.57;7.67;;;;;;;-0.15;100.00;99463.38;4152473;28;20216;-46
2023/01/22 03:46:35;;;;;;;8.73;7.93;;;;;;;-0.11;100.00;99454.81;4154034;28;20209;-45
2023/01/22 03:48:37;;;;;;;7.70;7.00;;;;;;;-0.14;100.00;99472.28;4138873;28;20233;-46
2023/01/22 03:50:39;;;;;;;7.10;6.43;;;;;;;-0.09;100.00;99461.91;4138187;28;20259;-46
2023/01/22 03:52:40;;;;;;;11.93;7.33;;;;;;;-0.16;100.00;99458.16;4122542;28;20342;-46
2023/01/22 03:54:42;;;;;;;7.60;6.87;;;;;;;-0.15;100.00;99462.53;4139296;28;20242;-46
2023/01/22 03:56:44;;;;;;;7.90;7.27;;;;;;;-0.16;100.00;99463.53;4135361;28;20244;-47
2023/01/22 03:58:47;;;;;;;7.47;6.77;;;;;;;-0.07;100.00;99461.56;4133935;28;20312;-46
2023/01/22 04:00:48;;;;;;;8.97;7.63;;;;;;;-0.07;100.00;99450.81;4139425;28;20256;-46
2023/01/22 04:02:52;;;;;;;8.40;7.70;;;;;;;-0.02;100.00;99455.69;4136462;28;20225;-46
2023/01/22 04:04:54;;;;;;;8.37;7.00;;;;;;;0.06;100.00;99461.97;4122705;28;20260;-46
2023/01/22 04:06:55;;;;;;;9.57;8.67;;;;;;;-0.06;100.00;99465.13;4122269;28;20226;-46
2023/01/22 04:08:57;;;;;;;6.10;5.60;;;;;;;-0.12;100.00;99461.19;4136581;28;20201;-46
2023/01/22 04:10:59;;;;;;;7.33;6.63;;;;;;;-0.05;100.00;99458.72;4118536;28;20206;-46
2023/01/22 04:13:01;;;;;;;8.60;7.83;;;;;;;-0.16;100.00;99463.53;4135962;28;20268;-46
2023/01/22 04:15:03;;;;;;;7.83;7.17;;;;;;;-0.11;100.00;99464.75;4135132;28;20300;-45
2023/01/22 04:17:05;;;;;;;6.87;6.23;;;;;;;-0.13;100.00;99466.75;4134947;28;20210;-47
2023/01/22 04:19:08;;;;;;;7.95;6.32;;;;;;;-0.13;100.00;99470.28;4136827;28;20233;-46
2023/01/22 04:21:10;;;;;;;7.53;6.82;;;;;;;-0.20;100.00;99476.44;4122330;28;20297;-46
2023/01/22 04:23:12;;;;;;;8.87;8.07;;;;;;;-0.16;100.00;99467.06;4133432;28;20241;-47
2023/01/22 04:25:13;;;;;;;8.77;7.40;;;;;;;-0.22;100.00;99462.31;4136711;28;20684;-46
2023/01/22 04:27:15;;;;;;;7.27;6.63;;;;;;;-0.11;100.00;99465.56;4135877;28;20208;-46
2023/01/22 04:29:17;;;;;;;7.53;6.73;;;;;;;-0.14;100.00;99469.59;4135492;28;20736;-46
2023/01/22 04:31:19;;;;;;;8.53;7.83;;;;;;;-0.14;100.00;99464.22;4123456;28;20252;-46
2023/01/22 04:33:21;;;;;;;7.33;6.67;;;;;;;-0.09;100.00;99461.91;4136191;28;20259;-47
2023/01/22 04:35:23;;;;;;;6.03;5.53;;;;;;;-0.13;100.00;99461.38;4138639;28;20304;-46
2023/01/22 04:37:25;;;;;;;6.63;6.03;;;;;;;-0.32;100.00;99466.13;4138051;28;20576;-46
2023/01/22 04:39:28;;;;;;;6.57;5.97;;;;;;;-0.29;100.00;99460.44;4134863;28;20233;-46
2023/01/22 04:41:32;;;;;;;6.57;6.07;;;;;;;-0.30;100.00;99464.09;4138155;28;20267;-46
2023/01/22 04:43:34;;;;;;;7.30;6.60;;;;;;;-0.23;100.00;99465.16;4152025;28;20234;-47
2023/01/22 04:45:36;;;;;;;7.43;6.60;;;;;;;-0.25;100.00;99461.78;4141255;28;20700;-45
2023/01/22 04:47:42;;;;;;;7.00;6.40;;;;;;;-0.16;100.00;99461.69;4149999;28;20216;-47
2023/01/22 04:49:44;;;;;;;8.17;7.37;;;;;;;-0.15;100.00;99462.53;4135998;28;20259;-45
2023/01/22 04:51:49;;;;;;;8.00;7.27;;;;;;;-0.17;100.00;99464.53;4138570;28;20233;-46
2023/01/22 04:53:50;;;;;;;6.97;6.30;;;;;;;-0.20;100.00;99456.78;4132981;28;20209;-45
2023/01/22 04:55:52;;;;;;;6.53;5.93;;;;;;;-0.20;100.00;99451.41;4149660;28;20212;-45
2023/01/22 04:57:55;;;;;;;7.47;6.77;;;;;;;-0.11;100.00;99444.06;4137370;28;20639;-46
2023/01/22 04:59:57;;;;;;;7.27;6.60;;;;;;;-0.05;100.00;99453.34;4137158;28;20205;-47
2023/01/22 05:01:59;;;;;;;6.73;5.83;;;;;;;-0.07;100.00;99450.81;4138386;28;20197;-45
2023/01/22 05:04:01;;;;;;;8.60;7.80;;;;;;;-0.12;100.00;99455.81;4120767;28;20245;-46
2023/01/22 05:06:04;;;;;;;6.63;6.13;;;;;;;-0.09;100.00;99449.28;4139191;28;20292;-45
2023/01/22 05:08:06;;;;;;;9.13;7.27;;;;;;;-0.01;100.00;99452.00;4135935;28;20235;-45
2023/01/22 05:10:08;;;;;;;7.67;6.87;;;;;;;-0.04;100.00;99450.47;4136200;28;20597;-46
2023/01/22 05:12:10;;;;;;;7.47;6.57;;;;;;;0.00;100.00;99453.72;4137003;28;20256;-45
2023/01/22 05:14:12;;;;;;;7.73;6.73;;;;;;;-0.09;100.00;99459.22;4136659;28;20210;-46
2023/01/22 05:16:13;;;;;;;6.10;5.50;;;;;;;-0.15;100.00;99457.16;4139120;28;20300;-45
2023/01/22 05:18:15;;;;;;;6.90;6.37;;;;;;;-0.06;100.00;99455.19;4138161;28;20205;-46
2023/01/22 05:20:17;;;;;;;7.60;6.97;;;;;;;-0.06;100.00;99454.34;4137357;28;20264;-46
2023/01/22 05:22:19;;;;;;;7.20;6.13;;;;;;;0.04;100.00;99458.59;4137985;28;20256;-46
2023/01/22 05:24:21;;;;;;;6.17;5.63;;;;;;;0.00;100.00;99457.22;4136779;28;20711;-46
2023/01/22 05:26:23;;;;;;;6.55;5.90;;;;;;;-0.04;100.00;99455.84;4139818;28;20308;-46
2023/01/22 05:28:24;;;;;;;5.63;5.17;;;;;;;-0.15;100.00;99463.38;4134633;28;20268;-47
2023/01/22 05:30:26;;;;;;;7.27;6.63;;;;;;;-0.13;100.00;99462.19;4120776;28;20241;-45
2023/01/22 05:32:28;;;;;;;7.40;6.80;;;;;;;-0.11;100.00;99460.19;4134219;28;20238;-46
2023/01/22 05:34:29;;;;;;;6.87;6.27;;;;;;;-0.06;100.00;99465.94;4136795;28;20642;-45
2023/01/22 05:36:31;;;;;;;7.53;6.83;;;;;;;-0.08;100.00;99470.66;4132817;28;20297;-45
2023/01/22 05:38:33;;;;;;;7.40;6.73;;;;;;;-0.06;100.00;99471.31;4136355;28;20210;-46
2023/01/22 05:40:35;;;;;;;7.23;6.60;;;;;;;-0.09;100.00;99472.66;4136412;28;20232;-46
2023/01/22 05:42:36;;;;;;;7.37;6.77;;;;;;;0.04;100.00;99485.50;4137117;28;20226;-46
2023/01/22 05:44:38;;;;;;;7.53;6.80;;;;;;;0.01;100.00;99480.44;4140180;28;20217;-46
2023/01/22 05:46:40;;;;;;;6.97;6.37;;;;;;;-0.01;100.00;99481.59;4138837;28;20457;-45
2023/01/22 05:48:42;;;;;;;6.77;6.17;;;;;;;-0.05;100.00;99480.25;4137499;28;20212;-46
2023/01/22 05:50:43;;;;;;;6.67;5.97;;;;;;;-0.03;100.00;99479.09;4142583;28;20251;-46
2023/01/22 05:52:45;;;;;;;8.50;7.70;;;;;;;0.02;100.00;99487.50;4138260;28;20374;-46
2023/01/22 05:54:47;;;;;;;7.27;6.63;;;;;;;-0.01;100.00;99487.81;4134636;28;20234;-46
2023/01/22 05:56:49;;;;;;;8.70;7.25;;;;;;;-0.02;100.00;99488.84;4140077;28;20283;-45
2023/01/22 05:58:53;;;;;;;7.00;6.30;;;;;;;-0.06;100.00;99489.31;4139570;28;20201;-45
2023/01/22 06:00:56;;;;;;;6.93;6.23;;;;;;;-0.13;100.00;99490.09;4146529;28;20217;-46
2023/01/22 06:02:59;;;;;;;6.70;6.10;;;;;;;-0.09;100.00;99480.72;4136178;28;20316;-46
2023/01/22 06:05:00;;;;;;;6.13;5.60;;;;;;;-0.09;100.00;99483.41;4135914;28;20213;-47
2023/01/22 06:07:02;;;;;;;6.83;6.23;;;;;;;-0.09;100.00;99483.41;4133255;28;20236;-46
2023/01/22 06:09:04;;;;;;;8.07;7.27;;;;;;;-0.17;100.00;99486.03;4147020;28;20255;-47
2023/01/22 06:11:09;;;;;;;5.77;4.63;;;;;;;-0.13;100.00;99483.72;4133678;28;20241;-46
2023/01/22 06:13:11;;;;;;;6.40;5.80;;;;;;;-0.09;100.00;99488.78;4124675;28;20238;-46
2023/01/22 06:15:13;;;;;;;6.97;6.43;;;;;;;-0.07;100.00;99491.16;4138139;28;22399;-46
2023/01/22 06:17:15;;;;;;;7.40;6.70;;;;;;;-0.09;100.00;99494.19;4141336;28;20300;-45
2023/01/22 06:19:17;;;;;;;6.93;6.13;;;;;;;0.04;100.00;99498.09;4152290;28;20342;-46
2023/01/22 06:21:18;;;;;;;5.73;5.30;;;;;;;0.02;100.00;99492.88;4141668;28;20244;-46
2023/01/22 06:23:21;;;;;;;8.23;7.37;;;;;;;-0.05;100.00;99499.91;4141040;28;22574;-45
2023/01/22 06:25:23;;;;;;;6.50;5.90;;;;;;;-0.04;100.00;99498.06;4152885;28;20251;-46
2023/01/22 06:27:25;;;;;;;6.83;6.23;;;;;;;0.01;100.00;99496.56;4138340;28;20563;-46
2023/01/22 06:29:26;;;;;;;7.15;6.65;;;;;;;0.14;100.00;99498.84;4137862;28;20228;-46
2023/01/22 06:31:30;;;;;;;7.37;6.67;;;;;;;0.07;100.00;99495.09;4135842;28;20237;-46
2023/01/22 06:33:33;;;;;;;7.33;6.73;;;;;;;0.00;100.00;99492.19;4138526;28;20237;-45
2023/01/22 06:35:35;;;;;;;6.90;6.30;;;;;;;-0.07;100.00;99493.84;4142011;28;20280;-45
2023/01/22 06:37:37;;;;;;;6.50;5.90;;;;;;;-0.04;100.00;99492.69;4140053;28;20299;-46
2023/01/22 06:39:38;;;;;;;8.07;7.37;;;;;;;0.00;100.00;99494.88;4152848;28;20213;-45
2023/01/22 06:41:40;;;;;;;6.27;5.77;;;;;;;0.02;100.00;99492.88;4122535;28;20214;-46
2023/01/22 06:43:42;;;;;;;7.00;6.40;;;;;;;-0.08;100.00;99493.16;4137569;28;20260;-47
2023/01/22 06:45:44;;;;;;;6.30;5.83;;;;;;;-0.13;100.00;99499.03;4139402;28;20206;-46
2023/01/22 06:47:45;;;;;;;6.93;6.33;;;;;;;0.00;100.00;99500.28;4138013;28;20695;-46
2023/01/22 06:49:47;;;;;;;7.63;6.10;;;;;;;-0.08;100.00;99502.91;4135384;28;20268;-45
2023/01/22 06:51:49;;;;;;;7.63;5.93;;;;;;;-0.04;100.00;99501.56;4141139;28;20236;-46
2023/01/22 06:53:51;;;;;;;7.80;7.00;;;;;;;-0.03;100.00;99497.06;4138636;28;20540;-45
2023/01/22 06:55:53;;;;;;;7.23;6.47;;;;;;;-0.05;100.00;99499.91;4140569;28;20210;-46
2023/01/22 06:57:55;;;;;;;6.87;6.27;;;;;;;-0.03;100.00;99495.22;4138606;28;20232;-46
2023/01/22 06:59:57;;;;;;;6.67;5.93;;;;;;;-0.02;100.00;99507.66;4138464;28;20218;-46
2023/01/22 07:01:59;;;;;;;7.35;5.72;;;;;;;-0.03;100.00;99500.59;4138022;28;20234;-45
2023/01/22 07:04:00;;;;;;;6.72;6.03;;;;;;;0.00;100.00;99508.34;4139124;28;20353;-46
2023/01/22 07:06:03;;;;;;;6.57;6.00;;;;;;;0.04;100.00;99520.47;4141418;28;20675;-46
2023/01/22 07:08:05;;;;;;;6.97;6.18;;;;;;;0.02;100.00;99522.47;4136254;28;20308;-47
2023/01/22 07:10:08;;;;;;;7.95;7.25;;;;;;;0.04;100.00;99517.78;4138745;28;20268;-46
2023/01/22 07:12:09;;;;;;;7.68;7.03;;;;;;;0.04;100.00;99516.94;4151157;28;20280;-46
2023/01/22 07:14:11;;;;;;;8.20;7.57;;;;;;;0.04;100.00;99527.69;4125497;28;20250;-46
2023/01/22 07:16:13;;;;;;;8.90;8.13;;;;;;;0.06;100.00;99523.84;4136921;28;20205;-46
2023/01/22 07:18:18;;;;;;;7.95;7.32;;;;;;;0.04;100.00;99528.56;4137775;28;20205;-46
2023/01/22 07:20:21;;;;;;;8.02;7.32;;;;;;;0.10;100.00;99527.06;4136189;28;20617;-47
2023/01/22 07:22:23;;;;;;;6.72;6.07;;;;;;;0.02;100.00;99532.41;4141156;28;20264;-46
2023/01/22 07:24:25;;;;;;;7.32;6.60;;;;;;;0.12;100.00;99535.81;4136532;28;20248;-47
2023/01/22 07:26:26;;;;;;;6.45;5.90;;;;;;;0.10;100.00;99538.69;4124056;28;20571;-46
2023/01/22 07:28:28;;;;;;;7.23;6.53;;;;;;;0.14;100.00;99534.66;4137899;28;20205;-45
2023/01/22 07:30:30;;;;;;;5.07;4.65;;;;;;;0.12;100.00;99541.19;4138937;28;20213;-46
2023/01/22 07:32:32;;;;;;;6.50;5.90;;;;;;;0.27;100.00;99537.75;4138659;28;20230;-46
2023/01/22 07:34:36;;;;;;;7.55;6.97;;;;;;;0.14;100.00;99540.03;4136516;28;20225;-45
2023/01/22 07:36:37;;;;;;;5.10;4.70;;;;;;;0.12;100.00;99547.44;4151447;28;20742;-46
2023/01/22 07:38:39;;;;;;;7.07;6.47;;;;;;;0.07;100.00;99554.28;4137187;28;20281;-46
2023/01/22 07:40:41;;;;;;;6.17;5.57;;;;;;;0.09;100.00;99553.09;4137294;28;20220;-46
2023/01/22 07:42:43;;;;;;;5.75;5.35;;;;;;;0.07;100.00;99557.81;4139546;28;20719;-46
2023/01/22 07:44:44;;;;;;;6.37;5.80;;;;;;;0.06;100.00;99556.13;4135169;28;20201;-45
2023/01/22 07:46:46;;;;;;;7.03;6.53;;;;;;;0.08;100.00;99556.81;4132418;28;20218;-46
2023/01/22 07:48:48;;;;;;;6.47;6.03;;;;;;;0.10;100.00;99559.34;4137527;28;20210;-46
2023/01/22 07:50:50;;;;;;;7.43;6.72;;;;;;;0.11;100.00;99559.19;4138277;28;20244;-46
2023/01/22 07:52:52;;;;;;;6.47;5.88;;;;;;;0.12;100.00;99563.56;4138722;28;20728;-45
2023/01/22 07:54:53;;;;;;;6.03;5.53;;;;;;;0.15;100.00;99557.84;4151754;28;20626;-46
2023/01/22 07:56:55;;;;;;;5.93;5.38;;;;;;;0.14;100.00;99566.94;4137764;28;20210;-46
2023/01/22 07:58:58;;;;;;;6.13;5.60;;;;;;;0.16;100.00;99559.53;4140127;28;20244;-45
2023/01/22 08:00:59;;;;;;;6.32;5.80;;;;;;;0.20;100.00;99558.22;4136885;28;20257;-45
2023/01/22 08:03:05;;;;;;;6.13;5.40;;;;;;;0.24;100.00;99561.44;4139719;28;20328;-46
2023/01/22 08:05:08;;;;;;;6.45;5.85;;;;;;;0.23;100.00;99560.63;4153570;28;20200;-45
2023/01/22 08:07:15;;;;;;;7.13;6.57;;;;;;;0.21;100.00;99570.69;4138991;28;20213;-46
2023/01/22 08:09:23;;;;;;;6.03;5.43;;;;;;;0.22;100.00;99575.06;4136659;28;21188;-45
2023/01/22 08:11:26;;;;;;;5.22;4.72;;;;;;;0.37;100.00;99581.56;4138133;28;20310;-45
2023/01/22 08:13:28;;;;;;;7.50;5.20;;;;;;;0.12;100.00;99574.31;4140402;28;20808;-46
2023/01/22 08:15:31;;;;;;;6.03;5.43;;;;;;;0.21;100.00;99586.81;4141217;28;20715;-46
2023/01/22 08:17:33;;;;;;;6.57;5.87;;;;;;;0.24;100.00;99586.53;4138582;28;20296;-46
2023/01/22 08:19:35;;;;;;;6.03;5.35;;;;;;;0.16;100.00;99586.44;4140789;28;20205;-46
2023/01/22 08:21:36;;;;;;;5.72;5.18;;;;;;;0.21;100.00;99592.19;4138410;28;20643;-48
2023/01/22 08:23:38;;;;;;;4.28;3.95;;;;;;;0.26;100.00;99589.88;4137929;28;20240;-46
2023/01/22 08:25:40;;;;;;;5.32;4.93;;;;;;;0.23;100.00;99587.53;4131292;28;20214;-48
2023/01/22 08:27:42;;;;;;;6.03;5.43;;;;;;;0.18;100.00;99589.84;4140085;28;20774;-48
2023/01/22 08:29:44;;;;;;;4.73;4.27;;;;;;;0.23;100.00;99587.53;4139347;28;20245;-46
2023/01/22 08:31:46;;;;;;;6.07;5.57;;;;;;;0.24;100.00;99594.59;4136819;28;20612;-46
2023/01/22 08:33:47;;;;;;;11.43;8.90;;;;;;;0.16;100.00;99599.91;4136737;28;20222;-46
2023/01/22 08:35:50;;;;;;;9.40;8.70;;;;;;;0.20;100.00;99595.06;4137054;28;20235;-46
2023/01/22 08:37:51;;;;;;;9.67;7.97;;;;;;;0.19;100.00;99599.59;4135939;28;20297;-46
2023/01/22 08:39:53;;;;;;;9.37;8.53;;;;;;;0.21;100.00;99599.44;4131307;28;20313;-46
2023/01/22 08:41:56;;;;;;;11.20;10.00;;;;;;;0.21;100.00;99599.44;4131284;28;20236;-45
2023/01/22 08:43:58;;;;;;;9.20;8.37;;;;;;;0.11;100.00;99599.56;4136547;28;20210;-47
2023/01/22 08:46:00;;;;;;;9.50;8.60;;;;;;;0.06;100.00;99604.56;4135580;28;20205;-46
2023/01/22 08:48:01;;;;;;;8.90;8.20;;;;;;;0.10;100.00;99602.38;4150540;28;20220;-46
2023/01/22 08:50:03;;;;;;;9.60;7.50;;;;;;;0.20;100.00;99598.59;4148382;28;20307;-46
2023/01/22 08:52:05;;;;;;;5.67;5.23;;;;;;;0.27;100.00;99599.63;4136367;28;20233;-46
2023/01/22 08:54:07;;;;;;;6.40;5.87;;;;;;;0.31;100.00;99601.03;4132888;28;20214;-45
2023/01/22 08:56:09;;;;;;;5.83;5.33;;;;;;;0.33;100.00;99601.69;4131637;28;20237;-46
2023/01/22 08:58:11;;;;;;;6.43;5.67;;;;;;;0.38;100.00;99607.47;4134441;28;20501;-46
2023/01/22 09:00:13;;;;;;;5.18;4.80;;;;;;;0.40;100.00;99616.22;4130951;28;20202;-45
2023/01/22 09:02:15;;;;;;;4.35;3.63;;;;;;;0.40;100.00;99613.53;4124424;28;20225;-45
2023/01/22 09:04:18;;;;;;;5.05;4.55;;;;;;;0.47;100.00;99617.25;4141749;28;20293;-46
2023/01/22 09:06:22;;;;;;;4.97;4.63;;;;;;;0.50;100.00;99616.97;4135200;28;20293;-46
2023/01/22 09:08:24;;;;;;;4.88;4.47;;;;;;;0.59;100.00;99620.50;4132674;28;20210;-46
2023/01/22 09:10:25;;;;;;;4.15;3.30;;;;;;;0.59;100.00;99620.50;4136601;28;20252;-46
2023/01/22 09:12:27;;;;;;;5.70;5.25;;;;;;;0.55;100.00;99613.78;4136057;28;20679;-47
2023/01/22 09:14:30;;;;;;;6.15;5.55;;;;;;;0.55;100.00;99620.00;4133473;28;20245;-46
2023/01/22 09:16:32;;;;;;;5.10;4.70;;;;;;;0.62;100.00;99621.03;4132161;28;20527;-45
2023/01/22 09:18:34;;;;;;;5.47;4.97;;;;;;;0.66;100.00;99621.56;4141211;28;20295;-46
2023/01/22 09:20:35;;;;;;;5.90;5.33;;;;;;;0.71;100.00;99622.78;4134038;28;20336;-47
2023/01/22 09:22:37;;;;;;;5.55;5.05;;;;;;;0.70;100.00;99622.94;4135355;28;20320;-47
2023/01/22 09:24:39;;;;;;;6.10;5.60;;;;;;;0.74;100.00;99625.13;4135216;28;20647;-46
2023/01/22 09:26:41;;;;;;;4.68;4.38;;;;;;;0.75;100.00;99620.63;4134803;28;20422;-47
2023/01/22 09:28:43;;;;;;;3.83;3.55;;;;;;;0.60;100.00;99623.06;4133011;28;20218;-46
2023/01/22 09:30:45;;;;;;;3.92;3.63;;;;;;;0.51;100.00;99626.72;4135379;28;20214;-46
2023/01/22 09:32:47;;;;;;;4.35;4.05;;;;;;;0.57;100.00;99623.38;4131675;28;20540;-46
2023/01/22 09:34:48;;;;;;;5.68;5.05;;;;;;;0.72;100.00;99629.84;4135371;28;20343;-46
2023/01/22 09:36:50;;;;;;;6.57;6.05;;;;;;;0.75;100.00;99626.00;4131994;28;20209;-45
2023/01/22 09:38:52;;;;;;;4.90;4.50;;;;;;;0.80;100.00;99629.06;4149515;28;20224;-47